Time;durP1;ratioP1;P1;durP2;ratioP2;P2;SDS_P1;SDS_P2;PMS_P1;PMS_P2;Temp;Humidity;BMP_temperature;BMP_pressure;BME280_temperature;BME280_humidity;BME280_pressure;Samples;Min_cycle;Max_cycle;Signal;HPM_P1;HPM_P2
2022/11/03 00:00:04;;;;;;;18.55;11.35;;;;;;;;;;5098689;28;20356;-83
2022/11/03 00:02:30;;;;;;;14.85;9.48;;;;;;;;;;5098316;28;20471;-83
2022/11/03 00:04:56;;;;;;;17.95;9.32;;;;;;;;;;5098358;28;20031;-83
2022/11/03 00:07:22;;;;;;;13.65;9.30;;;;;;;;;;5099370;27;20409;-83
2022/11/03 00:09:48;;;;;;;15.27;9.23;;;;;;;;;;5116501;27;20119;-83
2022/11/03 00:12:15;;;;;;;14.52;9.23;;;;;;;;;;5118084;28;20016;-83
2022/11/03 00:14:41;;;;;;;14.20;9.90;;;;;;;;;;5098288;28;20020;-83
2022/11/03 00:17:07;;;;;;;16.00;9.68;;;;;;;;;;5098045;27;20024;-83
2022/11/03 00:19:33;;;;;;;15.40;8.98;;;;;;;;;;5118229;27;20019;-83
2022/11/03 00:21:59;;;;;;;17.55;11.30;;;;;;;;;;5118437;27;20029;-84
2022/11/03 00:24:25;;;;;;;20.27;11.43;;;;;;;;;;5136774;27;20389;-83
2022/11/03 00:26:51;;;;;;;19.73;12.85;;;;;;;;;;5137036;27;20023;-83
2022/11/03 00:29:17;;;;;;;22.75;13.98;;;;;;;;;;5117630;27;20574;-84
2022/11/03 00:31:44;;;;;;;24.10;15.02;;;;;;;;;;5097691;28;20111;-83
2022/11/03 00:34:10;;;;;;;25.90;14.65;;;;;;;;;;5097879;28;20057;-83
2022/11/03 00:36:38;;;;;;;33.15;13.85;;;;;;;;;;5116058;28;20031;-83
2022/11/03 00:39:04;;;;;;;23.08;13.15;;;;;;;;;;5114040;27;20435;-83
2022/11/03 00:41:30;;;;;;;21.27;12.18;;;;;;;;;;5136692;27;20027;-84
2022/11/03 00:43:56;;;;;;;19.45;11.98;;;;;;;;;;5136611;27;20019;-84
2022/11/03 00:46:23;;;;;;;21.92;11.02;;;;;;;;;;5136601;27;20047;-84
2022/11/03 00:48:50;;;;;;;16.05;10.25;;;;;;;;;;5121616;27;20024;-84
2022/11/03 00:51:17;;;;;;;19.65;10.00;;;;;;;;;;5115842;28;20050;-84
2022/11/03 00:53:55;;;;;;;15.20;8.90;;;;;;;;;;5115515;28;20058;-82
2022/11/03 00:56:22;;;;;;;17.30;9.50;;;;;;;;;;5115752;28;20059;-83
2022/11/03 00:58:49;;;;;;;12.73;7.95;;;;;;;;;;5129121;27;20056;-83
2022/11/03 01:01:19;;;;;;;17.95;8.65;;;;;;;;;;5135719;27;20023;-84
2022/11/03 01:06:49;;;;;;;13.20;7.50;;;;;;;;;;5136068;27;20047;-83
2022/11/03 01:09:24;;;;;;;13.73;8.23;;;;;;;;;;5119986;27;20019;-83
2022/11/03 01:12:00;;;;;;;15.77;7.85;;;;;;;;;;5123625;27;20031;-84
2022/11/03 01:14:27;;;;;;;9.90;6.47;;;;;;;;;;5115529;28;20447;-84
2022/11/03 01:16:54;;;;;;;10.75;6.78;;;;;;;;;;5115354;28;20020;-84
2022/11/03 01:19:20;;;;;;;10.45;7.65;;;;;;;;;;5114500;27;20024;-83
2022/11/03 01:21:46;;;;;;;13.13;7.68;;;;;;;;;;5135757;27;20076;-83
2022/11/03 01:24:12;;;;;;;10.88;7.13;;;;;;;;;;5117353;27;20465;-84
2022/11/03 01:26:38;;;;;;;13.32;7.60;;;;;;;;;;5135663;27;20030;-83
2022/11/03 01:29:04;;;;;;;12.52;7.47;;;;;;;;;;5100816;28;20416;-84
2022/11/03 01:31:30;;;;;;;14.88;9.38;;;;;;;;;;5126015;27;20058;-83
2022/11/03 01:33:57;;;;;;;15.00;10.82;;;;;;;;;;5135602;27;20072;-83
2022/11/03 01:36:23;;;;;;;17.13;9.75;;;;;;;;;;5117148;27;20030;-83
2022/11/03 01:38:50;;;;;;;13.98;8.98;;;;;;;;;;5122051;27;20058;-83
2022/11/03 01:41:17;;;;;;;14.50;9.55;;;;;;;;;;5096612;28;20034;-83
2022/11/03 01:43:44;;;;;;;15.70;10.05;;;;;;;;;;5114784;28;20420;-83
2022/11/03 01:46:12;;;;;;;15.68;9.27;;;;;;;;;;5114763;28;20423;-83
2022/11/03 01:48:41;;;;;;;15.98;9.65;;;;;;;;;;5125529;27;20023;-84
2022/11/03 01:51:09;;;;;;;15.15;8.60;;;;;;;;;;5135167;27;20479;-83
2022/11/03 01:53:37;;;;;;;15.05;9.10;;;;;;;;;;5134754;27;20058;-83
2022/11/03 01:56:03;;;;;;;12.68;8.52;;;;;;;;;;5135225;27;20106;-84
2022/11/03 01:58:31;;;;;;;18.70;13.18;;;;;;;;;;5106844;28;20036;-83
2022/11/03 02:00:59;;;;;;;24.55;14.15;;;;;;;;;;5114706;28;20058;-84
2022/11/03 02:03:26;;;;;;;20.35;13.50;;;;;;;;;;5114430;28;20019;-84
2022/11/03 02:05:52;;;;;;;20.38;13.27;;;;;;;;;;5114505;28;20019;-83
2022/11/03 02:08:18;;;;;;;19.85;12.45;;;;;;;;;;5121818;27;20031;-84
2022/11/03 02:10:47;;;;;;;16.73;12.95;;;;;;;;;;5134825;27;20477;-83
2022/11/03 02:13:18;;;;;;;21.40;13.48;;;;;;;;;;5134922;27;20034;-83
2022/11/03 02:15:44;;;;;;;23.35;14.20;;;;;;;;;;5116440;28;20061;-83
2022/11/03 02:18:11;;;;;;;24.75;15.98;;;;;;;;;;5109771;28;20031;-84
2022/11/03 02:20:40;;;;;;;21.02;14.15;;;;;;;;;;5114114;28;20024;-83
2022/11/03 02:23:15;;;;;;;25.33;15.18;;;;;;;;;;5114265;28;20016;-83
2022/11/03 02:25:43;;;;;;;20.05;15.63;;;;;;;;;;5095907;28;20363;-83
2022/11/03 02:28:09;;;;;;;22.70;16.65;;;;;;;;;;5101538;27;20016;-84
2022/11/03 02:30:56;;;;;;;26.85;17.20;;;;;;;;;;5134478;27;20050;-84
2022/11/03 02:33:41;;;;;;;28.83;17.17;;;;;;;;;;5115907;27;20025;-84
2022/11/03 02:36:26;;;;;;;23.42;17.23;;;;;;;;;;5134530;27;20019;-83
2022/11/03 02:38:58;;;;;;;26.00;16.83;;;;;;;;;;5103824;28;20458;-84
2022/11/03 02:41:25;;;;;;;25.58;16.90;;;;;;;;;;5113826;28;20410;-83
2022/11/03 02:43:52;;;;;;;29.60;17.15;;;;;;;;;;5113843;28;20030;-84
2022/11/03 02:46:19;;;;;;;27.30;16.98;;;;;;;;;;5095550;28;20497;-83
2022/11/03 02:48:45;;;;;;;23.85;17.30;;;;;;;;;;5096710;28;20031;-84
2022/11/03 02:51:11;;;;;;;28.92;16.30;;;;;;;;;;5113752;28;20020;-83
2022/11/03 02:53:44;;;;;;;27.42;17.15;;;;;;;;;;5113652;28;20120;-85
2022/11/03 02:56:12;;;;;;;24.27;16.63;;;;;;;;;;5095434;28;20497;-83
2022/11/03 02:58:46;;;;;;;24.10;17.13;;;;;;;;;;5129122;28;20378;-83
2022/11/03 03:01:15;;;;;;;26.10;17.65;;;;;;;;;;5116185;28;20073;-84
2022/11/03 03:03:45;;;;;;;30.48;16.83;;;;;;;;;;5115901;28;20028;-84
2022/11/03 03:06:15;;;;;;;21.75;15.70;;;;;;;;;;5115851;28;20116;-83
2022/11/03 03:08:44;;;;;;;21.13;15.13;;;;;;;;;;5117912;28;20470;-84
2022/11/03 03:11:12;;;;;;;21.75;13.57;;;;;;;;;;5095344;28;20034;-83
2022/11/03 03:13:39;;;;;;;21.90;13.68;;;;;;;;;;5113703;28;20081;-84
2022/11/03 03:16:28;;;;;;;26.10;14.88;;;;;;;;;;5113613;28;20383;-84
2022/11/03 03:18:54;;;;;;;25.50;14.57;;;;;;;;;;5112256;28;20035;-84
2022/11/03 03:21:26;;;;;;;21.55;13.50;;;;;;;;;;5133947;28;20019;-83
2022/11/03 03:24:00;;;;;;;18.77;11.43;;;;;;;;;;5134110;28;20020;-84
2022/11/03 03:26:32;;;;;;;16.80;10.40;;;;;;;;;;5115496;28;20548;-84
2022/11/03 03:29:01;;;;;;;16.40;11.00;;;;;;;;;;5097826;28;20055;-83
2022/11/03 03:31:28;;;;;;;14.65;10.45;;;;;;;;;;5113566;28;20024;-84
2022/11/03 03:33:56;;;;;;;18.17;10.50;;;;;;;;;;5113459;28;20522;-83
2022/11/03 03:36:23;;;;;;;21.05;11.98;;;;;;;;;;5113339;28;20080;-84
2022/11/03 03:38:52;;;;;;;15.40;11.77;;;;;;;;;;5110856;28;20106;-83
2022/11/03 03:41:21;;;;;;;18.67;12.13;;;;;;;;;;5115439;28;20607;-84
2022/11/03 03:43:49;;;;;;;17.42;12.50;;;;;;;;;;5115373;28;20029;-83
2022/11/03 03:46:16;;;;;;;19.23;12.88;;;;;;;;;;5115399;28;20019;-84
2022/11/03 03:48:42;;;;;;;18.63;11.48;;;;;;;;;;5100132;28;20055;-84
2022/11/03 03:51:08;;;;;;;19.42;12.27;;;;;;;;;;5114223;28;20028;-84
2022/11/03 03:53:34;;;;;;;21.83;13.32;;;;;;;;;;5116919;28;20143;-84
2022/11/03 03:56:00;;;;;;;22.38;14.02;;;;;;;;;;5098473;28;20027;-83
2022/11/03 03:58:26;;;;;;;18.40;14.00;;;;;;;;;;5110622;27;20114;-83
2022/11/03 04:00:53;;;;;;;22.45;14.40;;;;;;;;;;5137423;27;20072;-84
2022/11/03 04:03:20;;;;;;;19.80;12.73;;;;;;;;;;5118863;27;20534;-83
2022/11/03 04:05:46;;;;;;;23.85;14.90;;;;;;;;;;5118842;27;20026;-84
2022/11/03 04:08:13;;;;;;;23.65;15.68;;;;;;;;;;5108292;28;20073;-84
2022/11/03 04:10:39;;;;;;;24.27;16.15;;;;;;;;;;5116634;28;20023;-84
2022/11/03 04:23:50;;;;;;;24.40;17.10;;;;;;;;;;5137145;27;20116;-83
2022/11/03 04:26:18;;;;;;;25.38;16.23;;;;;;;;;;5136845;27;20023;-83
2022/11/03 04:28:45;;;;;;;29.63;17.88;;;;;;;;;;5122214;27;20034;-84
2022/11/03 04:31:14;;;;;;;24.52;16.23;;;;;;;;;;5116115;28;20072;-83
2022/11/03 04:33:41;;;;;;;25.08;15.90;;;;;;;;;;5116301;28;20028;-84
2022/11/03 04:36:13;;;;;;;27.20;17.63;;;;;;;;;;5116165;28;20478;-83
2022/11/03 04:38:39;;;;;;;22.65;16.00;;;;;;;;;;5129433;27;20081;-84
2022/11/03 04:41:12;;;;;;;30.50;18.52;;;;;;;;;;5136585;27;20363;-84
2022/11/03 04:43:38;;;;;;;20.38;16.08;;;;;;;;;;5118172;27;20081;-84
2022/11/03 04:46:05;;;;;;;22.30;15.88;;;;;;;;;;5115919;27;20038;-84
2022/11/03 04:48:33;;;;;;;23.05;15.43;;;;;;;;;;5136208;27;20030;-83
2022/11/03 04:51:00;;;;;;;22.98;16.80;;;;;;;;;;5136532;27;20027;-84
2022/11/03 04:53:30;;;;;;;23.33;16.33;;;;;;;;;;5122788;27;20147;-85
2022/11/03 04:55:59;;;;;;;23.25;16.33;;;;;;;;;;5116097;27;20493;-84
2022/11/03 04:58:26;;;;;;;20.80;15.20;;;;;;;;;;5116598;27;20027;-83
2022/11/03 05:00:53;;;;;;;27.73;17.23;;;;;;;;;;5132343;27;20023;-84
2022/11/03 05:03:21;;;;;;;32.70;20.02;;;;;;;;;;5134359;27;20015;-84
2022/11/03 05:05:48;;;;;;;26.67;17.98;;;;;;;;;;5115844;27;20458;-84
2022/11/03 05:08:17;;;;;;;27.52;16.92;;;;;;;;;;5116678;27;20106;-84
2022/11/03 05:10:43;;;;;;;24.95;16.83;;;;;;;;;;5135768;27;20080;-84
2022/11/03 05:13:21;;;;;;;32.15;20.40;;;;;;;;;;5117445;27;20054;-83
2022/11/03 05:15:47;;;;;;;31.88;20.52;;;;;;;;;;5136122;27;20027;-84
2022/11/03 05:18:16;;;;;;;32.67;19.65;;;;;;;;;;5117358;27;20084;-84
2022/11/03 05:20:46;;;;;;;29.95;18.98;;;;;;;;;;5135772;27;20045;-84
2022/11/03 05:23:12;;;;;;;35.60;22.23;;;;;;;;;;5117206;27;20079;-83
2022/11/03 05:25:40;;;;;;;34.97;21.98;;;;;;;;;;5135721;27;20023;-84
2022/11/03 05:28:25;;;;;;;32.95;21.65;;;;;;;;;;5117217;27;20416;-84
2022/11/03 05:30:52;;;;;;;32.50;21.70;;;;;;;;;;5116965;27;20024;-82
2022/11/03 05:33:18;;;;;;;32.88;22.67;;;;;;;;;;5135548;27;20094;-82
2022/11/03 05:35:44;;;;;;;51.45;31.88;;;;;;;;;;5135393;27;20025;-81
2022/11/03 05:38:12;;;;;;;41.55;27.70;;;;;;;;;;5116392;27;20027;-81
2022/11/03 05:40:38;;;;;;;45.22;29.45;;;;;;;;;;5135369;27;20466;-81
2022/11/03 05:43:04;;;;;;;58.38;41.00;;;;;;;;;;5135323;27;20102;-81
2022/11/03 05:45:34;;;;;;;38.10;25.98;;;;;;;;;;5135111;27;20022;-81
2022/11/03 05:48:01;;;;;;;33.47;21.42;;;;;;;;;;5135352;27;20031;-81
2022/11/03 05:50:33;;;;;;;33.08;22.42;;;;;;;;;;5116563;27;20023;-81
2022/11/03 05:53:19;;;;;;;28.17;19.15;;;;;;;;;;5134788;27;20075;-81
2022/11/03 05:55:45;;;;;;;30.25;18.98;;;;;;;;;;5134930;27;20038;-81
2022/11/03 05:58:17;;;;;;;27.88;17.38;;;;;;;;;;5134797;27;20075;-82
2022/11/03 06:00:43;;;;;;;27.67;16.77;;;;;;;;;;5134849;27;20019;-81
2022/11/03 06:03:15;;;;;;;26.60;15.82;;;;;;;;;;5134832;27;20026;-81
2022/11/03 06:05:41;;;;;;;25.73;16.75;;;;;;;;;;5134735;27;20031;-81
2022/11/03 06:08:16;;;;;;;22.02;15.55;;;;;;;;;;5134760;27;20084;-81
2022/11/03 06:10:45;;;;;;;23.10;16.02;;;;;;;;;;5134704;27;20107;-81
2022/11/03 06:13:15;;;;;;;21.40;14.45;;;;;;;;;;5116153;27;20019;-81
2022/11/03 06:15:42;;;;;;;23.40;14.48;;;;;;;;;;5134573;27;20023;-81
2022/11/03 06:18:15;;;;;;;25.25;14.75;;;;;;;;;;5134686;27;20015;-81
2022/11/03 06:20:42;;;;;;;23.77;14.70;;;;;;;;;;5134770;27;20019;-81
2022/11/03 06:23:11;;;;;;;26.80;16.33;;;;;;;;;;5116279;27;20026;-81
2022/11/03 06:25:40;;;;;;;28.27;16.13;;;;;;;;;;5134154;27;20107;-81
2022/11/03 06:28:10;;;;;;;23.85;14.98;;;;;;;;;;5133866;27;20015;-81
2022/11/03 06:30:38;;;;;;;29.90;16.10;;;;;;;;;;5130247;27;20095;-81
2022/11/03 06:33:23;;;;;;;27.67;14.27;;;;;;;;;;5103277;28;20115;-82
2022/11/03 06:35:49;;;;;;;;;;;;;;;;;;5125468;27;20032;-81
2022/11/03 06:38:18;;;;;;;21.50;13.43;;;;;;;;;;5095806;27;21131;-81
2022/11/03 06:40:45;;;;;;;21.92;14.20;;;;;;;;;;5131408;27;20450;-80
2022/11/03 06:43:27;;;;;;;24.13;15.95;;;;;;;;;;5120329;28;20386;-89
2022/11/03 06:46:12;;;;;;;24.70;17.48;;;;;;;;;;5117497;27;20076;-85
2022/11/03 06:48:44;;;;;;;23.35;14.63;;;;;;;;;;5145505;27;20018;-85
2022/11/03 06:51:36;;;;;;;23.15;15.32;;;;;;;;;;5132436;28;20023;-85
2022/11/03 06:54:09;;;;;;;61.97;43.90;;;;;;;;;;5126107;28;20047;-90
2022/11/03 06:56:41;;;;;;;44.15;30.05;;;;;;;;;;5120040;28;20192;-88
2022/11/03 06:59:09;;;;;;;32.53;23.77;;;;;;;;;;5120384;28;20023;-86
2022/11/03 07:01:35;;;;;;;32.92;21.00;;;;;;;;;;5126209;28;20466;-86
2022/11/03 07:04:03;;;;;;;36.55;19.95;;;;;;;;;;5117006;28;20118;-85
2022/11/03 07:06:34;;;;;;;35.30;20.23;;;;;;;;;;5125668;27;20046;-86
2022/11/03 07:09:03;;;;;;;32.63;18.33;;;;;;;;;;5130856;28;20102;-82
2022/11/03 07:11:30;;;;;;;26.33;19.10;;;;;;;;;;5113735;28;20110;-82
2022/11/03 07:13:58;;;;;;;26.20;18.58;;;;;;;;;;5125101;27;20068;-84
2022/11/03 07:16:24;;;;;;;33.58;18.98;;;;;;;;;;5111179;27;20023;-84
2022/11/03 07:18:50;;;;;;;36.08;20.45;;;;;;;;;;5116200;28;20027;-84
2022/11/03 07:21:19;;;;;;;28.98;19.00;;;;;;;;;;5107845;28;20434;-85
2022/11/03 07:23:45;;;;;;;54.42;37.30;;;;;;;;;;5120680;27;20023;-85
2022/11/03 07:26:11;;;;;;;50.92;26.05;;;;;;;;;;5123968;27;20031;-82
2022/11/03 07:28:38;;;;;;;43.30;26.08;;;;;;;;;;5114993;28;20020;-84
2022/11/03 07:31:16;;;;;;;42.03;23.85;;;;;;;;;;5114925;27;20065;-84
2022/11/03 07:33:45;;;;;;;40.88;22.85;;;;;;;;;;5121396;27;20028;-88
2022/11/03 07:36:15;;;;;;;36.40;22.35;;;;;;;;;;5114073;27;20023;-85
2022/11/03 07:38:45;;;;;;;53.78;33.55;;;;;;;;;;5116344;27;20019;-84
2022/11/03 07:41:20;;;;;;;38.25;22.23;;;;;;;;;;5134985;27;20038;-85
2022/11/03 07:43:54;;;;;;;35.92;21.48;;;;;;;;;;5115380;27;20027;-86
2022/11/03 07:46:21;;;;;;;36.30;23.37;;;;;;;;;;5124044;27;20038;-84
2022/11/03 07:48:57;;;;;;;102.80;76.57;;;;;;;;;;5137856;27;20258;-82
2022/11/03 07:51:23;;;;;;;62.80;51.65;;;;;;;;;;5156135;27;20023;-82
2022/11/03 07:53:50;;;;;;;36.50;25.52;;;;;;;;;;5152642;27;20039;-84
2022/11/03 07:56:24;;;;;;;43.65;27.77;;;;;;;;;;5115425;27;20397;-88
2022/11/03 07:58:51;;;;;;;39.00;24.83;;;;;;;;;;5101817;27;20031;-85
2022/11/03 08:01:24;;;;;;;28.65;20.05;;;;;;;;;;5126626;27;20094;-84
2022/11/03 08:03:50;;;;;;;30.27;20.80;;;;;;;;;;5118116;27;20030;-84
2022/11/03 08:06:16;;;;;;;49.72;33.42;;;;;;;;;;5120542;27;20023;-85
2022/11/03 08:08:42;;;;;;;37.40;22.92;;;;;;;;;;5112653;27;20503;-87
2022/11/03 08:11:08;;;;;;;33.13;23.05;;;;;;;;;;5103557;28;20069;-83
2022/11/03 08:13:34;;;;;;;33.92;21.60;;;;;;;;;;5113649;27;20119;-89
2022/11/03 08:16:03;;;;;;;37.33;21.23;;;;;;;;;;5134942;27;20031;-85
2022/11/03 08:18:29;;;;;;;34.13;22.15;;;;;;;;;;5135212;27;20027;-85
2022/11/03 08:20:55;;;;;;;37.75;21.77;;;;;;;;;;5134142;27;20106;-86
2022/11/03 08:23:21;;;;;;;35.83;20.17;;;;;;;;;;5114517;27;20027;-87
2022/11/03 08:25:47;;;;;;;33.72;18.75;;;;;;;;;;5107318;28;20126;-86
2022/11/03 08:28:13;;;;;;;31.13;18.30;;;;;;;;;;5108091;27;20039;-86
2022/11/03 08:30:40;;;;;;;33.13;20.33;;;;;;;;;;5116420;27;20019;-88
2022/11/03 08:33:15;;;;;;;34.92;18.23;;;;;;;;;;5112496;28;20351;-87
2022/11/03 08:35:41;;;;;;;45.45;23.25;;;;;;;;;;5096112;28;20051;-86
2022/11/03 08:38:07;;;;;;;72.40;32.67;;;;;;;;;;5124328;27;20054;-84
2022/11/03 08:40:33;;;;;;;32.03;20.42;;;;;;;;;;5129050;27;20591;-86
2022/11/03 08:43:01;;;;;;;30.13;17.67;;;;;;;;;;5105924;27;20023;-86
2022/11/03 08:45:40;;;;;;;172.05;63.38;;;;;;;;;;5129643;27;20034;-89
2022/11/03 08:48:29;;;;;;;40.45;20.40;;;;;;;;;;5133274;27;20035;-90
2022/11/03 08:51:04;;;;;;;32.30;16.20;;;;;;;;;;5093938;27;20038;-84
2022/11/03 08:53:30;;;;;;;69.60;36.80;;;;;;;;;;5133337;27;20083;-87
2022/11/03 08:55:56;;;;;;;48.05;32.85;;;;;;;;;;5134812;27;20039;-87
2022/11/03 08:58:23;;;;;;;39.03;25.90;;;;;;;;;;5132934;27;20386;-86
2022/11/03 09:00:52;;;;;;;39.05;25.73;;;;;;;;;;5115963;27;20030;-85
2022/11/03 09:03:21;;;;;;;29.50;20.52;;;;;;;;;;5134604;27;20046;-90
2022/11/03 09:05:50;;;;;;;25.63;17.65;;;;;;;;;;5115164;27;20083;-90
2022/11/03 09:08:19;;;;;;;24.25;17.20;;;;;;;;;;5105064;27;20038;-85
2022/11/03 09:10:45;;;;;;;23.58;16.23;;;;;;;;;;5113441;27;20032;-85
2022/11/03 09:13:11;;;;;;;22.83;14.90;;;;;;;;;;5113540;28;20099;-90
2022/11/03 09:15:41;;;;;;;21.90;13.90;;;;;;;;;;5099332;27;20015;-88
2022/11/03 09:18:07;;;;;;;26.15;14.07;;;;;;;;;;5113778;27;20038;-82
2022/11/03 09:20:51;;;;;;;20.50;14.02;;;;;;;;;;5121047;27;20107;-85
2022/11/03 09:23:17;;;;;;;21.98;13.50;;;;;;;;;;5114763;27;20386;-80
2022/11/03 09:25:47;;;;;;;21.58;13.55;;;;;;;;;;5128435;27;20019;-81
2022/11/03 09:28:13;;;;;;;20.25;14.05;;;;;;;;;;5131304;27;20478;-82
2022/11/03 09:30:39;;;;;;;19.73;13.70;;;;;;;;;;5127087;27;20023;-82
2022/11/03 09:33:05;;;;;;;23.08;14.02;;;;;;;;;;5133079;27;20228;-83
2022/11/03 09:35:31;;;;;;;29.90;18.90;;;;;;;;;;5114421;27;20027;-84
2022/11/03 09:38:00;;;;;;;29.13;21.13;;;;;;;;;;5130704;27;20029;-84
2022/11/03 09:40:27;;;;;;;32.72;24.15;;;;;;;;;;5131042;27;20040;-82
2022/11/03 09:42:53;;;;;;;28.02;19.35;;;;;;;;;;5113460;27;20394;-83
2022/11/03 09:45:19;;;;;;;28.35;17.85;;;;;;;;;;5132323;27;20110;-82
2022/11/03 09:47:46;;;;;;;24.88;16.98;;;;;;;;;;5127677;27;20488;-82
2022/11/03 09:50:16;;;;;;;20.52;15.10;;;;;;;;;;5128775;27;20042;-81
2022/11/03 09:52:45;;;;;;;20.75;15.32;;;;;;;;;;5130955;27;20043;-87
2022/11/03 09:55:20;;;;;;;23.80;13.60;;;;;;;;;;5113975;27;20355;-88
2022/11/03 09:57:46;;;;;;;17.00;13.52;;;;;;;;;;5100991;28;20037;-87
2022/11/03 10:00:18;;;;;;;20.88;14.40;;;;;;;;;;5112866;28;20081;-86
2022/11/03 10:02:56;;;;;;;22.80;14.07;;;;;;;;;;5125360;27;20033;-89
2022/11/03 10:05:23;;;;;;;18.48;11.75;;;;;;;;;;5101555;28;20118;-89
2022/11/03 10:07:52;;;;;;;21.77;13.77;;;;;;;;;;5106718;27;20034;-87
2022/11/03 10:10:22;;;;;;;19.23;14.05;;;;;;;;;;5111205;27;20028;-81
2022/11/03 10:12:50;;;;;;;18.55;12.02;;;;;;;;;;5125790;27;20024;-83
2022/11/03 10:15:17;;;;;;;20.80;13.90;;;;;;;;;;5131436;27;20015;-85
2022/11/03 10:17:44;;;;;;;18.70;14.43;;;;;;;;;;5112756;27;20042;-86
2022/11/03 10:20:14;;;;;;;19.65;13.30;;;;;;;;;;5132671;27;20027;-85
2022/11/03 10:22:42;;;;;;;20.70;13.40;;;;;;;;;;5109218;27;20490;-85
2022/11/03 10:25:27;;;;;;;21.08;13.82;;;;;;;;;;5122181;27;20417;-77
2022/11/03 10:28:10;;;;;;;19.20;12.18;;;;;;;;;;5128422;27;20031;-83
2022/11/03 10:30:47;;;;;;;18.10;13.10;;;;;;;;;;5102781;27;20374;-82
2022/11/03 10:33:33;;;;;;;20.48;12.85;;;;;;;;;;5127367;27;20035;-85
2022/11/03 10:36:21;;;;;;;19.05;12.88;;;;;;;;;;5112776;27;20019;-86
2022/11/03 10:38:47;;;;;;;20.05;11.80;;;;;;;;;;5122750;27;20067;-84
2022/11/03 10:41:17;;;;;;;30.52;23.00;;;;;;;;;;5129853;27;20026;-84
2022/11/03 10:43:45;;;;;;;19.33;14.15;;;;;;;;;;5124486;27;20120;-84
2022/11/03 10:46:14;;;;;;;18.17;13.70;;;;;;;;;;5123797;27;20028;-85
2022/11/03 10:48:40;;;;;;;18.27;13.88;;;;;;;;;;5128711;28;20030;-83
2022/11/03 10:51:09;;;;;;;26.05;14.55;;;;;;;;;;5123869;28;20031;-84
2022/11/03 10:53:35;;;;;;;16.38;11.85;;;;;;;;;;5104866;28;20204;-86
2022/11/03 10:56:01;;;;;;;20.25;12.10;;;;;;;;;;5103878;28;20089;-83
2022/11/03 10:58:27;;;;;;;15.85;11.88;;;;;;;;;;5093800;28;20034;-83
2022/11/03 11:00:53;;;;;;;15.45;12.85;;;;;;;;;;5116881;27;20022;-83
2022/11/03 11:03:20;;;;;;;16.33;11.95;;;;;;;;;;5091370;28;20073;-80
2022/11/03 11:05:46;;;;;;;18.70;12.07;;;;;;;;;;5102259;27;20024;-81
2022/11/03 11:08:14;;;;;;;16.60;11.45;;;;;;;;;;5104755;27;20020;-80
2022/11/03 11:10:43;;;;;;;16.98;11.48;;;;;;;;;;5110952;27;20039;-81
2022/11/03 11:13:21;;;;;;;14.55;11.73;;;;;;;;;;5112117;27;20031;-80
2022/11/03 11:16:10;;;;;;;15.82;11.10;;;;;;;;;;5087416;28;20028;-81
2022/11/03 11:18:40;;;;;;;18.27;11.27;;;;;;;;;;5106143;27;20032;-80
2022/11/03 11:21:12;;;;;;;17.20;11.15;;;;;;;;;;5117821;27;20032;-82
2022/11/03 11:23:40;;;;;;;19.42;12.35;;;;;;;;;;5089138;28;20023;-84
2022/11/03 11:26:09;;;;;;;18.27;13.15;;;;;;;;;;5098572;28;20063;-81
2022/11/03 11:28:41;;;;;;;14.50;10.77;;;;;;;;;;5120939;27;21063;-82
2022/11/03 11:31:26;;;;;;;18.35;11.05;;;;;;;;;;5106311;27;20035;-84
2022/11/03 11:33:52;;;;;;;;;;;;;;;;;;5099639;28;20090;-86
2022/11/03 11:36:22;;;;;;;16.42;11.25;;;;;;;;;;5112548;27;19907;-84
2022/11/03 11:38:51;;;;;;;16.13;11.85;;;;;;;;;;5105649;27;20566;-85
2022/11/03 11:41:17;;;;;;;31.48;15.80;;;;;;;;;;5093561;28;20566;-84
2022/11/03 11:43:43;;;;;;;28.75;12.52;;;;;;;;;;5108880;28;20417;-80
2022/11/03 11:46:33;;;;;;;16.08;10.35;;;;;;;;;;5104780;28;20059;-84
2022/11/03 11:49:15;;;;;;;13.98;10.27;;;;;;;;;;5110988;28;20027;-83
2022/11/03 11:51:41;;;;;;;17.55;11.38;;;;;;;;;;5105698;27;20023;-81
2022/11/03 11:54:08;;;;;;;16.65;10.50;;;;;;;;;;5107815;27;20051;-82
2022/11/03 11:56:40;;;;;;;16.83;11.07;;;;;;;;;;5096957;28;20031;-83
2022/11/03 11:59:17;;;;;;;20.70;11.80;;;;;;;;;;5100918;28;20026;-86
2022/11/03 12:01:43;;;;;;;23.52;12.52;;;;;;;;;;5088281;28;20088;-88
2022/11/03 12:04:13;;;;;;;16.92;11.30;;;;;;;;;;5086966;28;20024;-83
2022/11/03 12:06:39;;;;;;;21.13;13.13;;;;;;;;;;5117439;27;20019;-85
2022/11/03 12:09:06;;;;;;;15.77;11.25;;;;;;;;;;5112614;27;20050;-84
2022/11/03 12:11:42;;;;;;;15.25;11.23;;;;;;;;;;5096602;28;20484;-83
2022/11/03 12:14:27;;;;;;;18.52;11.90;;;;;;;;;;5097888;27;20690;-84
2022/11/03 12:16:53;;;;;;;17.23;11.27;;;;;;;;;;5092654;28;20024;-82
2022/11/03 12:19:38;;;;;;;19.42;12.30;;;;;;;;;;5112947;28;20043;-85
2022/11/03 12:22:28;;;;;;;18.13;10.90;;;;;;;;;;5110893;28;20035;-78
2022/11/03 12:24:55;;;;;;;47.42;14.70;;;;;;;;;;5103704;28;20035;-82
2022/11/03 12:27:24;;;;;;;36.42;17.67;;;;;;;;;;5110876;28;20063;-82
2022/11/03 12:29:50;;;;;;;76.65;34.55;;;;;;;;;;5109852;28;20050;-81
2022/11/03 12:32:16;;;;;;;26.23;16.48;;;;;;;;;;5111378;28;20031;-82
2022/11/03 12:34:42;;;;;;;17.10;10.82;;;;;;;;;;5110505;28;20539;-82
2022/11/03 12:37:09;;;;;;;16.60;10.80;;;;;;;;;;5112985;27;20016;-83
2022/11/03 12:39:35;;;;;;;15.32;10.60;;;;;;;;;;5113598;28;20034;-82
2022/11/03 12:42:01;;;;;;;14.20;10.25;;;;;;;;;;5109364;27;20050;-84
2022/11/03 12:44:27;;;;;;;14.02;10.63;;;;;;;;;;5113395;27;20024;-84
2022/11/03 12:46:53;;;;;;;13.65;10.20;;;;;;;;;;5098062;28;20383;-84
2022/11/03 12:49:19;;;;;;;14.00;9.65;;;;;;;;;;5110077;28;20031;-84
2022/11/03 12:51:46;;;;;;;17.45;11.27;;;;;;;;;;5086903;28;20036;-85
2022/11/03 12:54:12;;;;;;;16.23;10.27;;;;;;;;;;5111472;27;20047;-83
2022/11/03 12:56:38;;;;;;;13.93;9.35;;;;;;;;;;5118009;27;20027;-83
2022/11/03 12:59:04;;;;;;;15.57;10.45;;;;;;;;;;5107066;27;20032;-85
2022/11/03 13:01:31;;;;;;;14.98;9.48;;;;;;;;;;5099027;28;20481;-84
2022/11/03 13:03:58;;;;;;;15.85;10.95;;;;;;;;;;5111839;28;20528;-83
2022/11/03 13:06:24;;;;;;;18.38;10.25;;;;;;;;;;5114542;27;20028;-83
2022/11/03 13:08:50;;;;;;;12.55;9.45;;;;;;;;;;5110517;28;20073;-83
2022/11/03 13:14:01;;;;;;;14.43;9.23;;;;;;;;;;5110426;27;20090;-86
2022/11/03 13:16:28;;;;;;;18.60;10.18;;;;;;;;;;5114440;27;20016;-84
2022/11/03 13:18:54;;;;;;;14.00;8.90;;;;;;;;;;5093961;28;20486;-87
2022/11/03 13:21:21;;;;;;;12.52;8.50;;;;;;;;;;5113307;28;20023;-85
2022/11/03 13:23:47;;;;;;;17.77;9.70;;;;;;;;;;5093633;28;20032;-86
2022/11/03 13:26:13;;;;;;;15.40;10.40;;;;;;;;;;5111337;27;20066;-83
2022/11/03 13:28:39;;;;;;;26.67;11.45;;;;;;;;;;5113710;27;20016;-83
2022/11/03 13:31:05;;;;;;;15.73;9.25;;;;;;;;;;5109917;28;20028;-80
2022/11/03 13:33:32;;;;;;;16.45;9.30;;;;;;;;;;5111332;27;20027;-81
2022/11/03 13:35:58;;;;;;;24.23;12.93;;;;;;;;;;5114059;27;20500;-85
2022/11/03 13:38:24;;;;;;;15.80;11.30;;;;;;;;;;5113593;28;20382;-86
2022/11/03 13:40:50;;;;;;;34.03;16.42;;;;;;;;;;5086866;28;20020;-83
2022/11/03 13:43:16;;;;;;;18.13;11.38;;;;;;;;;;5094290;28;20023;-89
2022/11/03 13:49:21;;;;;;;16.42;11.23;;;;;;;;;;5032989;28;20134;-89
2022/11/03 13:51:47;;;;;;;17.95;9.55;;;;;;;;;;5043601;28;20041;-84
2022/11/03 13:54:13;;;;;;;18.13;10.55;;;;;;;;;;5048638;28;20072;-81
2022/11/03 13:56:39;;;;;;;17.80;10.50;;;;;;;;;;5053837;28;20608;-84
2022/11/03 13:59:07;;;;;;;17.13;9.82;;;;;;;;;;5089108;28;20027;-82
2022/11/03 14:01:33;;;;;;;14.55;8.73;;;;;;;;;;5113946;28;20024;-81
2022/11/03 14:03:59;;;;;;;15.32;8.73;;;;;;;;;;5110623;28;20030;-84
2022/11/03 14:06:25;;;;;;;16.42;10.20;;;;;;;;;;5113578;27;20024;-87
2022/11/03 14:08:51;;;;;;;16.40;10.52;;;;;;;;;;5113242;27;20053;-83
2022/11/03 14:14:02;;;;;;;19.52;10.40;;;;;;;;;;5103813;28;20043;-82
2022/11/03 14:16:28;;;;;;;50.40;20.83;;;;;;;;;;5113353;28;20020;-85
2022/11/03 14:18:57;;;;;;;27.80;15.35;;;;;;;;;;5093959;28;20040;-84
2022/11/03 14:21:23;;;;;;;14.57;10.02;;;;;;;;;;5091430;28;20098;-84
2022/11/03 14:23:49;;;;;;;13.68;9.38;;;;;;;;;;5111079;27;20030;-86
2022/11/03 14:26:16;;;;;;;16.75;11.20;;;;;;;;;;5099268;28;20404;-83
2022/11/03 14:28:42;;;;;;;13.45;8.32;;;;;;;;;;5096498;28;20061;-85
2022/11/03 14:31:08;;;;;;;15.90;9.82;;;;;;;;;;5122449;27;20102;-83
2022/11/03 14:33:34;;;;;;;15.68;9.93;;;;;;;;;;5112769;28;20080;-85
2022/11/03 14:36:00;;;;;;;13.05;9.23;;;;;;;;;;5090065;28;20027;-83
2022/11/03 14:38:26;;;;;;;14.35;9.73;;;;;;;;;;5092592;28;20060;-83
2022/11/03 14:43:36;;;;;;;;;;;;;;;;;;5093419;28;20541;-83
2022/11/03 14:46:06;;;;;;;16.80;10.00;;;;;;;;;;5093330;28;19908;-84
2022/11/03 14:48:32;;;;;;;21.02;11.15;;;;;;;;;;5072396;28;20047;-86
2022/11/03 14:50:58;;;;;;;19.85;13.23;;;;;;;;;;5092970;28;20028;-84
2022/11/03 14:53:25;;;;;;;19.85;13.98;;;;;;;;;;5094408;28;20060;-84
2022/11/03 14:55:51;;;;;;;22.88;14.15;;;;;;;;;;5101546;28;20020;-82